Time;durP1;ratioP1;P1;durP2;ratioP2;P2;SDS_P1;SDS_P2;PMS_P1;PMS_P2;Temp;Humidity;BMP_temperature;BMP_pressure;BME280_temperature;BME280_humidity;BME280_pressure;Samples;Min_cycle;Max_cycle;Signal;HPM_P1;HPM_P2
2021/11/26 00:00:49;;;;;;;41.83;24.83;;;;;;;4.85;69.74;99837.87;1379224;88;21388;-92
2021/11/26 00:03:29;;;;;;;38.03;23.23;;;;;;;4.83;69.85;99835.02;1372812;88;21341;-91
2021/11/26 00:05:57;;;;;;;37.60;25.25;;;;;;;4.83;69.82;99831.91;1322580;89;22255;-91
2021/11/26 00:08:25;;;;;;;38.60;24.40;;;;;;;4.87;69.94;99828.09;1368575;88;21405;-91
2021/11/26 00:10:52;;;;;;;35.30;22.90;;;;;;;4.86;70.17;99825.13;1380113;88;21308;-90
2021/11/26 00:13:28;;;;;;;34.63;22.97;;;;;;;4.89;70.13;99818.77;1386790;88;21331;-91
2021/11/26 00:15:57;;;;;;;35.63;23.30;;;;;;;4.89;70.13;99818.77;1361175;91;22274;-90
2021/11/26 00:18:21;;;;;;;30.03;20.63;;;;;;;4.96;70.38;99818.16;1375487;88;21453;-91
2021/11/26 00:20:48;;;;;;;38.30;24.73;;;;;;;4.97;70.23;99811.94;1381513;89;21478;-90
2021/11/26 00:23:16;;;;;;;38.00;23.73;;;;;;;4.94;70.16;99812.19;1364550;90;21419;-90
2021/11/26 00:25:45;;;;;;;38.13;23.03;;;;;;;4.84;70.29;99804.75;1380644;89;22557;-91
2021/11/26 00:28:13;;;;;;;35.63;23.97;;;;;;;4.84;70.29;99804.75;1382889;88;21462;-93
2021/11/26 00:30:42;;;;;;;37.73;23.83;;;;;;;4.84;70.26;99794.75;1368984;89;22532;-92
2021/11/26 00:33:09;;;;;;;36.50;21.97;;;;;;;4.84;70.16;99794.27;1370956;88;21333;-92
2021/11/26 00:35:36;;;;;;;41.20;23.10;;;;;;;4.82;70.11;99798.79;1355157;89;22257;-92
2021/11/26 00:38:03;;;;;;;33.27;20.97;;;;;;;4.82;70.10;99794.03;1359165;89;22106;-91
2021/11/26 00:40:30;;;;;;;38.90;23.60;;;;;;;4.80;70.08;99792.83;1356751;90;21355;-89
2021/11/26 00:42:58;;;;;;;37.27;22.07;;;;;;;4.78;70.11;99788.22;1359202;89;22098;-91
2021/11/26 00:45:26;;;;;;;37.83;24.40;;;;;;;4.78;70.02;99777.73;1356214;89;23037;-92
2021/11/26 00:47:53;;;;;;;40.40;24.80;;;;;;;4.78;70.02;99777.73;1360173;89;21411;-90
2021/11/26 00:50:22;;;;;;;39.30;24.77;;;;;;;4.80;70.02;99774.48;1355025;89;22045;-91
2021/11/26 00:52:49;;;;;;;36.40;23.57;;;;;;;4.83;69.77;99756.36;1366757;89;22389;-91
2021/11/26 00:55:17;;;;;;;38.83;23.70;;;;;;;4.83;69.77;99756.36;1357316;90;21362;-91
2021/11/26 00:57:44;;;;;;;34.40;22.27;;;;;;;4.80;69.86;99750.88;1360573;89;21331;-91
2021/11/26 01:00:16;;;;;;;34.37;22.30;;;;;;;4.80;69.86;99750.88;1359243;91;21347;-90
2021/11/26 01:02:43;;;;;;;32.20;20.80;;;;;;;4.87;69.97;99748.13;1355408;89;23214;-91
2021/11/26 01:05:13;;;;;;;34.77;22.47;;;;;;;4.86;69.97;99739.54;1356691;90;22198;-91
2021/11/26 01:07:41;;;;;;;33.30;21.77;;;;;;;4.85;70.09;99739.54;1356663;90;21435;-91
2021/11/26 01:10:13;;;;;;;36.17;21.30;;;;;;;4.88;69.87;99742.39;1361201;91;21925;-91
2021/11/26 01:12:41;;;;;;;31.07;20.43;;;;;;;4.88;69.87;99736.66;1356471;91;21472;-90
2021/11/26 01:15:10;;;;;;;34.13;22.20;;;;;;;4.86;70.01;99716.31;1360830;91;21457;-90
2021/11/26 01:17:41;;;;;;;33.17;19.83;;;;;;;4.86;70.01;99716.31;1354925;90;21495;-91
2021/11/26 01:20:12;;;;;;;32.70;20.57;;;;;;;4.91;69.96;99723.30;1347899;91;21376;-92
2021/11/26 01:22:40;;;;;;;34.33;21.13;;;;;;;4.87;69.99;99713.20;1361876;91;21421;-90
2021/11/26 01:25:08;;;;;;;31.50;21.50;;;;;;;4.89;70.05;99712.13;1353212;89;21592;-91
2021/11/26 01:27:38;;;;;;;30.77;21.23;;;;;;;4.89;70.05;99705.56;1353949;91;21384;-91
2021/11/26 01:30:13;;;;;;;34.27;22.47;;;;;;;4.84;70.18;99696.42;1349759;91;21332;-92
2021/11/26 01:32:39;;;;;;;34.50;21.47;;;;;;;4.88;70.15;99699.95;1353392;90;21399;-91
2021/11/26 01:35:07;;;;;;;34.53;21.87;;;;;;;4.88;70.15;99694.70;1359151;90;21222;-91
2021/11/26 01:37:34;;;;;;;36.57;23.57;;;;;;;4.89;70.19;99703.40;1363810;89;21311;-90
2021/11/26 01:40:07;;;;;;;33.93;22.43;;;;;;;4.90;70.18;99693.28;1341918;91;21368;-91
2021/11/26 01:42:41;;;;;;;32.87;20.83;;;;;;;4.92;70.25;99686.95;1357027;90;21369;-90
2021/11/26 01:45:09;;;;;;;30.33;20.17;;;;;;;4.92;70.11;99684.33;1354839;89;21385;-89
2021/11/26 01:47:36;;;;;;;37.77;21.80;;;;;;;4.94;70.15;99678.94;1358762;91;21553;-90
2021/11/26 01:50:06;;;;;;;31.43;21.87;;;;;;;4.96;70.25;99672.61;1358196;90;21396;-90
2021/11/26 01:52:34;;;;;;;33.20;21.87;;;;;;;4.97;70.15;99665.56;1364287;90;21347;-91
2021/11/26 01:55:09;;;;;;;32.97;22.50;;;;;;;4.97;70.15;99665.56;1366968;89;21547;-90
2021/11/26 01:57:37;;;;;;;35.73;21.73;;;;;;;4.91;70.27;99649.87;1361110;89;21383;-90
2021/11/26 02:00:09;;;;;;;34.03;21.40;;;;;;;4.91;70.27;99654.85;1364040;89;21354;-91
2021/11/26 02:02:36;;;;;;;32.93;19.83;;;;;;;4.94;70.29;99654.85;1367284;90;21414;-92
2021/11/26 02:05:04;;;;;;;33.93;21.07;;;;;;;4.92;70.27;99652.86;1366903;89;21302;-92
2021/11/26 02:07:33;;;;;;;30.00;19.40;;;;;;;4.86;70.41;99636.80;1360383;90;22156;-92
2021/11/26 02:10:00;;;;;;;32.47;21.33;;;;;;;4.86;70.41;99636.80;1356602;90;21327;-92
2021/11/26 02:12:28;;;;;;;32.20;21.07;;;;;;;4.88;70.66;99635.71;1359203;89;22057;-92
2021/11/26 02:14:57;;;;;;;42.80;21.13;;;;;;;4.85;70.46;99622.86;1361988;89;21318;-92
2021/11/26 02:17:31;;;;;;;32.87;19.63;;;;;;;4.87;70.53;99627.51;1360856;89;21421;-92
2021/11/26 02:19:59;;;;;;;37.30;21.67;;;;;;;4.87;70.53;99630.13;1366857;89;22982;-91
2021/11/26 02:22:27;;;;;;;28.97;18.53;;;;;;;4.87;70.54;99630.13;1366526;90;21356;-90
2021/11/26 02:24:55;;;;;;;33.17;20.73;;;;;;;4.88;70.62;99626.53;1361426;89;21369;-91
2021/11/26 02:27:22;;;;;;;30.67;20.57;;;;;;;4.90;70.59;99628.55;1363544;89;22418;-91
2021/11/26 02:30:13;;;;;;;34.27;21.37;;;;;;;4.89;70.94;99626.91;1363227;89;21376;-92
2021/11/26 02:32:39;;;;;;;34.63;21.97;;;;;;;4.92;70.47;99628.41;1362780;89;21442;-91
2021/11/26 02:35:09;;;;;;;35.30;21.20;;;;;;;4.92;70.53;99625.33;1357989;90;21303;-92
2021/11/26 02:37:40;;;;;;;29.90;20.40;;;;;;;4.94;70.68;99624.70;1355981;91;21303;-91
2021/11/26 02:40:12;;;;;;;36.53;22.30;;;;;;;4.94;70.60;99616.83;1360184;89;21331;-91
2021/11/26 02:42:42;;;;;;;32.30;21.13;;;;;;;5.01;70.62;99617.64;1356704;91;21266;-91
2021/11/26 02:45:13;;;;;;;34.73;22.10;;;;;;;5.02;70.50;99616.19;1362241;90;21448;-90
2021/11/26 02:47:51;;;;;;;33.30;21.27;;;;;;;5.02;70.50;99616.19;1361232;89;21406;-90
2021/11/26 02:50:23;;;;;;;29.60;20.07;;;;;;;5.00;70.44;99605.47;1357071;89;21415;-90
2021/11/26 02:52:52;;;;;;;35.78;21.87;;;;;;;4.98;70.47;99601.20;1366551;89;22446;-90
2021/11/26 02:55:26;;;;;;;31.53;22.63;;;;;;;4.97;70.41;99602.14;1360566;91;21310;-92
2021/11/26 02:57:56;;;;;;;36.50;22.03;;;;;;;4.95;70.33;99592.77;1353380;87;21801;31
2021/11/26 03:00:28;;;;;;;32.77;21.80;;;;;;;4.98;70.42;99592.02;1363337;87;22582;31
2021/11/26 03:03:01;;;;;;;34.87;20.53;;;;;;;4.95;70.64;99586.22;1371107;89;21473;-92
2021/11/26 03:05:33;;;;;;;34.00;20.93;;;;;;;4.95;70.64;99586.22;1372863;87;21720;31
2021/11/26 03:10:51;;;;;;;30.90;20.03;;;;;;;4.91;70.66;99586.94;1381663;87;21563;-91
2021/11/26 03:15:46;;;;;;;34.67;21.53;;;;;;;4.96;70.66;99587.38;1383138;87;21644;-92
2021/11/26 03:18:16;;;;;;;34.90;21.23;;;;;;;4.89;70.41;99574.47;1369749;89;22283;-91
2021/11/26 03:20:45;;;;;;;33.90;21.53;;;;;;;4.93;70.52;99579.78;1362327;89;21323;-91
2021/11/26 03:23:12;;;;;;;34.43;22.67;;;;;;;4.94;70.46;99584.05;1364380;89;22515;-89
2021/11/26 03:25:41;;;;;;;33.83;22.10;;;;;;;4.98;70.54;99583.33;1366251;89;21390;-88
2021/11/26 03:28:10;;;;;;;29.67;19.57;;;;;;;4.97;70.40;99578.54;1376765;89;21353;-91
2021/11/26 03:30:38;;;;;;;32.57;20.50;;;;;;;4.98;70.45;99580.22;1367701;89;21330;-91
2021/11/26 03:33:06;;;;;;;32.23;19.57;;;;;;;4.95;70.42;99572.62;1369698;87;22550;-91
2021/11/26 03:35:33;;;;;;;31.73;19.60;;;;;;;4.95;70.50;99571.80;1375340;89;21235;-90
2021/11/26 03:38:01;;;;;;;31.57;20.83;;;;;;;4.89;70.54;99556.56;1365965;89;21338;-90
2021/11/26 03:40:29;;;;;;;32.33;20.60;;;;;;;4.90;70.54;99553.00;1377943;89;21361;-91
2021/11/26 03:42:57;;;;;;;36.27;21.17;;;;;;;4.90;70.54;99553.00;1381150;88;21405;-92
2021/11/26 03:45:29;;;;;;;35.67;21.70;;;;;;;4.92;70.43;99557.16;1368395;87;21514;31
2021/11/26 03:47:58;;;;;;;32.77;21.47;;;;;;;4.90;70.41;99553.00;1372371;86;21849;-85
2021/11/26 03:50:28;;;;;;;30.47;19.83;;;;;;;4.89;70.41;99540.49;1344848;90;21329;-90
2021/11/26 03:52:55;;;;;;;30.50;18.97;;;;;;;4.88;70.33;99540.49;1326172;91;21451;-90
2021/11/26 03:55:27;;;;;;;27.90;18.53;;;;;;;4.89;70.28;99539.06;1338016;90;21361;-89
2021/11/26 03:57:55;;;;;;;28.17;19.17;;;;;;;4.85;70.22;99533.72;1333697;91;21451;-91
2021/11/26 04:00:23;;;;;;;30.17;19.00;;;;;;;4.89;70.19;99529.89;1334912;90;22323;-91
2021/11/26 04:02:51;;;;;;;28.37;17.27;;;;;;;4.90;70.17;99519.73;1352359;89;21338;-91
2021/11/26 04:05:18;;;;;;;27.77;17.83;;;;;;;4.81;69.99;99502.19;1349097;90;21405;-91
2021/11/26 04:07:47;;;;;;;30.40;18.83;;;;;;;4.83;70.11;99505.48;1344316;90;22298;-91
2021/11/26 04:10:16;;;;;;;31.90;18.90;;;;;;;4.83;70.24;99507.28;1342596;90;21361;-91
2021/11/26 04:12:46;;;;;;;31.53;18.07;;;;;;;4.79;70.17;99498.86;1338381;89;21503;-90
2021/11/26 04:15:15;;;;;;;29.20;18.90;;;;;;;4.79;70.25;99501.48;1338285;90;22041;-90
2021/11/26 04:17:45;;;;;;;31.50;20.50;;;;;;;4.76;70.12;99496.51;1346578;90;22392;-91
2021/11/26 04:20:13;;;;;;;29.43;19.37;;;;;;;4.80;70.24;99493.95;1337855;90;21375;-91
2021/11/26 04:22:41;;;;;;;30.03;19.53;;;;;;;4.80;70.24;99493.95;1373396;86;21610;-89
2021/11/26 04:25:14;;;;;;;32.50;19.47;;;;;;;4.78;69.98;99493.77;1375913;88;22092;-90
2021/11/26 04:27:41;;;;;;;39.97;18.33;;;;;;;4.78;70.06;99483.28;1369398;88;21414;-92
2021/11/26 04:30:11;;;;;;;30.37;19.13;;;;;;;4.75;69.93;99481.27;1382997;87;21387;-92
2021/11/26 04:32:38;;;;;;;24.40;16.20;;;;;;;4.77;70.10;99472.43;1375614;87;21443;-93
2021/11/26 04:37:34;;;;;;;27.57;17.77;;;;;;;4.73;69.96;99455.66;1358984;87;23753;-83
2021/11/26 04:40:11;;;;;;;29.87;17.63;;;;;;;4.73;69.96;99455.66;1396398;88;21604;-90
2021/11/26 04:42:40;;;;;;;23.10;15.73;;;;;;;4.77;70.03;99450.97;1358694;88;22253;-89
2021/11/26 04:45:10;;;;;;;31.27;17.53;;;;;;;4.78;70.01;99453.14;1360516;88;22236;-89
2021/11/26 04:47:38;;;;;;;42.77;18.37;;;;;;;4.80;69.97;99444.63;1366005;89;22121;-89
2021/11/26 04:50:08;;;;;;;26.50;15.80;;;;;;;4.77;69.81;99442.28;1329874;91;22369;-90
2021/11/26 04:52:35;;;;;;;26.73;16.97;;;;;;;4.78;69.87;99447.89;1335110;91;21414;-91
2021/11/26 04:55:05;;;;;;;27.80;17.37;;;;;;;4.73;69.86;99441.73;1351028;88;22825;-87
2021/11/26 04:57:32;;;;;;;25.40;15.80;;;;;;;4.73;69.86;99441.73;1349407;90;21336;-86
2021/11/26 05:00:00;;;;;;;23.03;14.87;;;;;;;4.82;69.68;99454.52;1352162;89;22086;-86
2021/11/26 05:02:28;;;;;;;27.70;15.30;;;;;;;4.80;69.45;99444.63;1329181;93;22397;-86
2021/11/26 05:04:55;;;;;;;31.47;17.57;;;;;;;4.80;69.35;99445.45;1342348;91;22250;-86
2021/11/26 05:07:23;;;;;;;27.73;16.17;;;;;;;4.84;69.52;99446.86;1319299;91;22172;-86
2021/11/26 05:09:52;;;;;;;22.90;14.70;;;;;;;4.84;69.43;99445.55;1308747;94;22096;-86
2021/11/26 05:12:20;;;;;;;25.93;15.90;;;;;;;4.82;69.41;99441.41;1312023;93;22126;-86
2021/11/26 05:14:47;;;;;;;25.00;15.23;;;;;;;4.81;69.22;99434.03;1318594;92;22422;-86
2021/11/26 05:17:14;;;;;;;29.77;17.17;;;;;;;4.81;69.22;99434.03;1324654;92;21454;-86
2021/11/26 05:19:42;;;;;;;27.63;16.90;;;;;;;4.80;69.39;99434.97;1316433;91;22307;-86
2021/11/26 05:22:09;;;;;;;34.33;18.20;;;;;;;4.80;69.39;99434.97;1308165;92;21369;-87
2021/11/26 05:24:36;;;;;;;29.70;18.30;;;;;;;4.84;69.54;99435.55;1344750;91;22483;-86
2021/11/26 05:27:04;;;;;;;33.13;17.80;;;;;;;4.84;69.40;99431.13;1322683;93;21489;-87
2021/11/26 05:29:31;;;;;;;34.50;20.57;;;;;;;4.83;69.44;99420.28;1327688;93;21505;-87
2021/11/26 05:31:58;;;;;;;36.77;18.73;;;;;;;4.80;69.19;99419.24;1338949;91;22905;-87
2021/11/26 05:34:25;;;;;;;28.37;17.37;;;;;;;4.80;69.19;99419.24;1360806;90;21408;-87
2021/11/26 05:36:52;;;;;;;29.70;16.50;;;;;;;4.83;69.35;99415.03;1351261;90;21451;-86
2021/11/26 05:39:19;;;;;;;30.67;19.13;;;;;;;4.85;69.13;99422.30;1316161;93;21347;-87
2021/11/26 05:41:46;;;;;;;28.03;15.50;;;;;;;4.86;69.23;99419.19;1321455;92;21446;-87
2021/11/26 05:44:14;;;;;;;34.30;19.20;;;;;;;4.89;68.93;99421.53;1347481;90;21340;-87
2021/11/26 05:46:41;;;;;;;33.47;19.23;;;;;;;4.90;68.96;99414.86;1351073;88;22255;-88
2021/11/26 05:49:09;;;;;;;34.80;19.80;;;;;;;4.88;68.96;99416.78;1355719;89;21419;-87
2021/11/26 05:51:36;;;;;;;35.50;19.57;;;;;;;4.90;68.82;99414.03;1342581;91;21680;-89
2021/11/26 05:54:04;;;;;;;30.27;19.33;;;;;;;4.89;68.82;99408.42;1333752;91;21461;-88
2021/11/26 05:56:31;;;;;;;38.60;18.73;;;;;;;4.89;68.81;99398.79;1328384;93;21469;-88
2021/11/26 05:58:58;;;;;;;31.47;18.80;;;;;;;4.88;68.74;99401.05;1354720;91;21373;-88
2021/11/26 06:01:25;;;;;;;26.83;17.23;;;;;;;4.85;68.53;99402.62;1344852;91;21427;-86
2021/11/26 06:03:52;;;;;;;31.10;18.37;;;;;;;4.87;68.77;99398.09;1353288;90;21355;-86
2021/11/26 06:06:19;;;;;;;34.20;17.73;;;;;;;4.85;68.35;99393.94;1361408;89;21357;-88
2021/11/26 06:08:47;;;;;;;25.27;15.50;;;;;;;4.81;68.57;99385.53;1331546;92;21517;-88
2021/11/26 06:11:17;;;;;;;25.10;14.55;;;;;;;4.81;68.57;99385.53;1335149;91;21474;-91
2021/11/26 06:13:44;;;;;;;23.20;15.10;;;;;;;4.82;68.65;99384.55;1342679;91;21413;-92
2021/11/26 06:16:11;;;;;;;30.73;16.87;;;;;;;4.80;68.66;99379.92;1329883;92;23144;-89
2021/11/26 06:18:38;;;;;;;25.70;15.60;;;;;;;4.77;68.53;99359.22;1313167;92;22198;-90
2021/11/26 06:21:15;;;;;;;33.13;15.80;;;;;;;4.77;68.53;99359.22;1306129;94;21408;-91
2021/11/26 06:23:43;;;;;;;32.13;17.93;;;;;;;4.82;68.51;99368.00;1299148;94;21503;-94
2021/11/26 06:26:10;;;;;;;29.10;17.97;;;;;;;4.75;68.33;99354.62;1310318;93;21380;-94
2021/11/26 06:28:37;;;;;;;31.10;15.23;;;;;;;4.81;68.34;99366.36;1315591;93;22311;-92
2021/11/26 06:31:04;;;;;;;24.40;15.67;;;;;;;4.83;68.37;99359.98;1343496;91;21436;-89
2021/11/26 06:33:31;;;;;;;23.53;14.90;;;;;;;4.85;68.40;99356.75;1340103;91;22212;-91
2021/11/26 06:35:58;;;;;;;23.80;14.73;;;;;;;4.82;68.21;99341.30;1325554;91;21384;-89
2021/11/26 06:38:26;;;;;;;23.80;16.37;;;;;;;4.82;68.21;99341.30;1311511;94;21354;-89
2021/11/26 06:40:53;;;;;;;25.63;15.00;;;;;;;4.88;68.01;99338.13;1353573;91;22749;-89
2021/11/26 06:43:20;;;;;;;21.40;14.13;;;;;;;4.89;67.90;99335.86;1349554;90;21565;-89
2021/11/26 06:45:50;;;;;;;24.13;15.57;;;;;;;4.92;67.80;99331.66;1350077;91;21349;-90
2021/11/26 06:48:17;;;;;;;21.70;14.67;;;;;;;4.95;67.80;99326.80;1351152;89;22468;-89
2021/11/26 06:50:44;;;;;;;25.07;15.57;;;;;;;4.97;67.62;99326.80;1335358;91;21648;-89
2021/11/26 06:53:12;;;;;;;22.73;14.13;;;;;;;5.00;67.77;99329.63;1346745;90;22478;-89
2021/11/26 06:55:39;;;;;;;26.47;15.97;;;;;;;5.03;67.55;99331.16;1353916;89;21451;-89
2021/11/26 06:58:06;;;;;;;26.23;15.87;;;;;;;5.06;67.52;99330.87;1356184;89;21369;-90
2021/11/26 07:00:34;;;;;;;24.53;16.03;;;;;;;5.10;67.16;99333.58;1347316;90;21383;-90
2021/11/26 07:03:01;;;;;;;20.67;14.43;;;;;;;5.16;67.24;99329.08;1351211;89;21467;-89
2021/11/26 07:05:28;;;;;;;25.97;16.03;;;;;;;5.17;66.83;99322.37;1360196;89;21365;-89
2021/11/26 07:07:56;;;;;;;23.03;15.70;;;;;;;5.23;67.17;99314.42;1353464;89;21437;-89
2021/11/26 07:10:23;;;;;;;21.70;14.77;;;;;;;5.25;66.72;99315.12;1348616;89;21465;-89
2021/11/26 07:12:50;;;;;;;25.37;15.23;;;;;;;5.32;66.56;99304.42;1358479;88;21331;-90
2021/11/26 07:15:19;;;;;;;27.47;14.57;;;;;;;5.41;66.56;99303.56;1347646;90;21645;-89
2021/11/26 07:17:46;;;;;;;24.27;15.47;;;;;;;5.47;66.21;99286.42;1352273;89;21596;-90
2021/11/26 07:20:14;;;;;;;26.10;14.83;;;;;;;5.54;65.77;99285.36;1358628;90;21407;-90
2021/11/26 07:22:42;;;;;;;22.73;13.00;;;;;;;5.56;65.29;99272.92;1354236;90;22270;-89
2021/11/26 07:25:10;;;;;;;20.10;13.97;;;;;;;5.64;65.72;99264.67;1359833;90;22970;-90
2021/11/26 07:27:38;;;;;;;20.67;14.23;;;;;;;5.70;65.52;99265.05;1358381;89;21489;-90
2021/11/26 07:30:08;;;;;;;25.37;13.40;;;;;;;5.76;65.18;99256.13;1350977;89;21549;-89
2021/11/26 07:32:36;;;;;;;26.45;14.65;;;;;;;5.85;64.26;99250.48;1345625;89;21598;-91
2021/11/26 07:35:04;;;;;;;29.40;13.40;;;;;;;5.95;65.12;99249.14;1347568;88;21357;-90
2021/11/26 07:37:32;;;;;;;22.50;14.30;;;;;;;6.07;64.70;99247.50;1350696;90;22590;-91
2021/11/26 07:40:00;;;;;;;22.80;14.87;;;;;;;6.19;64.68;99241.55;1351702;89;21335;-90
2021/11/26 07:42:27;;;;;;;22.90;14.87;;;;;;;6.33;64.26;99237.09;1352754;90;21479;-90
2021/11/26 07:44:54;;;;;;;25.53;15.07;;;;;;;6.50;63.39;99234.13;1350754;89;22406;-90
2021/11/26 07:47:21;;;;;;;26.30;15.40;;;;;;;6.65;62.82;99230.48;1345795;89;21369;-90
2021/11/26 07:49:52;;;;;;;21.37;14.47;;;;;;;6.86;63.48;99224.06;1354055;89;21304;-93
2021/11/26 07:52:18;;;;;;;23.43;15.07;;;;;;;7.00;62.72;99213.80;1348100;89;21549;-94
2021/11/26 07:54:46;;;;;;;22.17;14.83;;;;;;;7.10;61.82;99207.61;1348387;90;22243;-94
2021/11/26 07:57:14;;;;;;;27.63;16.10;;;;;;;7.15;61.49;99210.61;1362925;89;21699;-93
2021/11/26 07:59:41;;;;;;;24.90;13.87;;;;;;;7.27;61.82;99207.22;1353450;89;21429;-95
2021/11/26 08:02:09;;;;;;;20.30;12.73;;;;;;;7.22;60.16;99201.09;1355447;89;21473;-92
2021/11/26 08:04:38;;;;;;;22.50;14.47;;;;;;;7.18;60.00;99207.17;1347753;90;21384;-91
2021/11/26 08:07:06;;;;;;;39.53;24.37;;;;;;;7.15;59.78;99210.11;1358777;90;22302;-89
2021/11/26 08:09:34;;;;;;;27.97;16.80;;;;;;;7.13;60.36;99210.75;1353617;89;22478;-91
2021/11/26 08:12:02;;;;;;;21.70;14.90;;;;;;;7.17;60.49;99210.80;1348280;91;21376;-92
2021/11/26 08:14:34;;;;;;;20.87;15.23;;;;;;;7.22;60.60;99209.84;1347224;90;21511;-90
2021/11/26 08:17:01;;;;;;;26.87;14.87;;;;;;;7.29;60.43;99204.77;1357454;90;21356;-90
2021/11/26 08:19:29;;;;;;;21.27;13.90;;;;;;;7.31;60.50;99199.33;1349420;90;21591;-91
2021/11/26 08:21:56;;;;;;;22.00;13.73;;;;;;;7.31;59.88;99188.80;1351729;90;21445;-91
2021/11/26 08:24:24;;;;;;;23.27;14.40;;;;;;;7.37;62.67;99189.02;1352855;90;21461;-91
2021/11/26 08:26:52;;;;;;;33.20;15.20;;;;;;;7.40;60.18;99193.97;1355317;90;21495;-91
2021/11/26 08:29:19;;;;;;;21.93;14.27;;;;;;;7.48;60.63;99186.61;1352386;90;21353;-91
2021/11/26 08:31:47;;;;;;;21.00;14.23;;;;;;;7.49;60.86;99180.85;1355849;89;21416;-91
2021/11/26 08:34:14;;;;;;;24.90;15.10;;;;;;;7.58;59.82;99177.27;1354196;89;21351;-91
2021/11/26 08:36:42;;;;;;;22.63;15.30;;;;;;;7.67;59.72;99177.63;1354214;89;21438;-91
2021/11/26 08:39:10;;;;;;;20.83;13.93;;;;;;;7.69;57.80;99168.58;1345155;91;22273;-90
2021/11/26 08:41:41;;;;;;;19.67;12.60;;;;;;;7.82;58.50;99156.75;1342773;90;21379;-91
2021/11/26 08:44:08;;;;;;;26.77;14.97;;;;;;;7.91;58.64;99144.77;1353143;89;21376;-90
2021/11/26 08:46:36;;;;;;;18.60;13.00;;;;;;;8.00;57.69;99131.59;1359429;89;21385;-91
2021/11/26 08:49:03;;;;;;;43.77;27.53;;;;;;;8.16;59.03;99140.84;1348755;90;21354;-89
2021/11/26 08:51:37;;;;;;;19.70;13.57;;;;;;;8.23;58.05;99127.82;1343640;91;21625;-89
2021/11/26 08:54:04;;;;;;;21.53;13.67;;;;;;;8.31;57.10;99119.42;1347723;89;21665;-89
2021/11/26 08:56:31;;;;;;;23.30;13.47;;;;;;;8.45;58.87;99107.42;1357376;89;21413;-89
2021/11/26 08:59:01;;;;;;;20.83;15.30;;;;;;;8.58;57.02;99093.75;1351779;90;21392;-89
2021/11/26 09:01:33;;;;;;;25.23;15.27;;;;;;;8.67;56.72;99086.14;1355180;90;21613;-90
2021/11/26 09:04:00;;;;;;;20.33;12.77;;;;;;;8.70;56.23;99084.48;1356154;89;21394;-89
2021/11/26 09:06:28;;;;;;;18.63;12.27;;;;;;;8.76;56.76;99077.72;1361447;90;21319;-89
2021/11/26 09:08:55;;;;;;;20.03;13.03;;;;;;;8.91;56.76;99060.19;1358669;90;22897;-89
2021/11/26 09:11:23;;;;;;;22.77;14.40;;;;;;;8.98;55.56;99060.34;1350774;90;21313;-89
2021/11/26 09:13:50;;;;;;;27.70;17.70;;;;;;;8.90;55.63;99049.31;1358890;89;21428;-88
2021/11/26 09:16:17;;;;;;;22.30;14.00;;;;;;;8.86;54.94;99044.53;1362577;90;22928;-88
2021/11/26 09:18:48;;;;;;;16.60;11.73;;;;;;;8.80;55.88;99032.84;1350254;90;21407;-89
2021/11/26 09:21:14;;;;;;;25.20;14.37;;;;;;;8.79;55.41;99027.25;1357418;90;22575;-89
2021/11/26 09:23:42;;;;;;;29.43;16.47;;;;;;;8.87;56.08;99018.00;1359250;89;22722;-89
2021/11/26 09:26:09;;;;;;;15.23;11.13;;;;;;;8.91;56.07;99020.61;1359471;89;21379;-89
2021/11/26 09:28:38;;;;;;;17.47;11.77;;;;;;;9.07;54.97;98999.94;1358659;90;21487;-90
2021/11/26 09:31:05;;;;;;;31.97;20.90;;;;;;;9.39;53.58;98988.36;1357681;90;21483;-89
2021/11/26 09:33:35;;;;;;;19.77;13.13;;;;;;;9.81;53.42;98976.51;1355119;89;22559;-89
2021/11/26 09:36:05;;;;;;;20.50;12.30;;;;;;;9.96;53.09;98959.87;1360664;90;23176;-89
2021/11/26 09:38:35;;;;;;;23.95;16.17;;;;;;;9.98;51.88;98952.56;1362457;89;21397;-89
2021/11/26 09:41:06;;;;;;;18.30;12.47;;;;;;;10.09;52.74;98945.52;1365788;89;21326;-89
2021/11/26 09:43:35;;;;;;;;;;;;;;;10.04;52.14;98945.23;1358857;89;23065;-89
2021/11/26 09:46:05;;;;;;;19.77;11.63;;;;;;;10.07;50.36;98942.22;1350879;89;20341;-89
2021/11/26 09:48:35;;;;;;;28.33;17.67;;;;;;;10.17;51.99;98933.54;1362906;89;22398;-90
2021/11/26 09:51:05;;;;;;;36.45;23.60;;;;;;;10.09;51.18;98923.86;1352152;89;22286;-89
2021/11/26 09:53:34;;;;;;;30.63;17.40;;;;;;;10.01;51.43;98921.33;1350308;90;21569;-90
2021/11/26 09:56:05;;;;;;;70.13;40.10;;;;;;;9.92;52.50;98923.20;1349371;90;21322;-88
2021/11/26 09:58:34;;;;;;;25.23;16.60;;;;;;;9.87;52.46;98920.30;1347813;90;22369;-93
2021/11/26 10:01:06;;;;;;;21.63;13.53;;;;;;;9.81;52.17;98919.70;1352883;89;22265;-93
2021/11/26 10:03:49;;;;;;;32.83;19.30;;;;;;;9.81;52.60;98917.53;1356777;89;21390;-90
2021/11/26 10:06:37;;;;;;;47.70;28.83;;;;;;;9.73;52.56;98906.56;1351714;90;21334;-89
2021/11/26 10:09:11;;;;;;;24.20;15.83;;;;;;;9.72;52.80;98899.61;1359091;89;21536;-89
2021/11/26 10:11:52;;;;;;;15.73;11.93;;;;;;;9.70;52.01;98895.03;1346787;89;21416;-89
2021/11/26 10:14:24;;;;;;;35.55;21.42;;;;;;;9.70;51.79;98880.00;1351373;89;21444;-89
2021/11/26 10:16:57;;;;;;;25.00;14.17;;;;;;;9.69;52.82;98863.80;1362102;89;21368;-89
2021/11/26 10:19:40;;;;;;;22.60;12.70;;;;;;;9.78;52.81;98861.09;1341196;90;21474;-89
2021/11/26 10:22:31;;;;;;;15.40;10.93;;;;;;;9.92;53.17;98856.31;1361875;89;21291;-95
2021/11/26 10:25:15;;;;;;;15.50;10.80;;;;;;;10.21;51.80;98840.95;1356449;89;21356;-96
2021/11/26 10:27:55;;;;;;;19.30;13.33;;;;;;;10.52;50.99;98830.17;1351419;89;21395;-96
2021/11/26 10:30:33;;;;;;;14.85;10.45;;;;;;;10.86;50.24;98817.31;1360577;90;21364;-96
2021/11/26 10:33:25;;;;;;;15.27;10.97;;;;;;;11.08;48.15;98808.36;1338705;91;21351;-93
2021/11/26 10:36:02;;;;;;;18.13;11.83;;;;;;;11.36;50.39;98800.94;1350267;90;21404;-96
2021/11/26 10:38:34;;;;;;;13.73;8.87;;;;;;;11.60;46.81;98785.94;1369229;86;21628;-95
2021/11/26 10:41:09;;;;;;;16.53;9.70;;;;;;;11.58;47.36;98781.33;1372984;87;21243;-95
2021/11/26 10:49:03;;;;;;;18.82;13.72;;;;;;;11.56;46.24;98764.80;1383017;86;21281;-94
2021/11/26 10:59:50;;;;;;;19.17;10.83;;;;;;;11.07;48.62;98737.88;1367066;89;21530;-92
2021/11/26 11:02:37;;;;;;;15.20;10.32;;;;;;;10.95;48.18;98739.41;1355136;91;22321;-94
2021/11/26 11:05:07;;;;;;;10.93;8.47;;;;;;;10.75;48.41;98729.97;1355435;89;21390;-92
2021/11/26 11:07:43;;;;;;;11.33;8.75;;;;;;;10.62;48.59;98732.01;1361758;89;21318;-95
2021/11/26 11:10:24;;;;;;;13.50;9.13;;;;;;;10.50;48.92;98733.49;1337843;92;22093;-94
2021/11/26 11:12:53;;;;;;;26.13;15.50;;;;;;;10.25;48.38;98718.48;1366900;89;21324;-95
2021/11/26 11:15:21;;;;;;;11.77;9.37;;;;;;;10.13;48.88;98717.64;1364614;90;21331;-95
2021/11/26 11:17:50;;;;;;;14.53;8.77;;;;;;;9.97;48.91;98710.42;1378510;88;23172;-96
2021/11/26 11:20:18;;;;;;;10.33;7.07;;;;;;;9.87;48.72;98707.58;1368831;88;21347;-93
2021/11/26 11:22:46;;;;;;;33.57;9.20;;;;;;;9.73;48.75;98695.72;1387752;90;21369;-93
2021/11/26 11:25:24;;;;;;;13.77;8.90;;;;;;;9.64;49.28;98684.44;1377040;88;21322;-96
2021/11/26 11:27:49;;;;;;;18.80;8.93;;;;;;;9.59;49.69;98685.48;1358617;89;21453;-93
2021/11/26 11:30:16;;;;;;;12.73;8.33;;;;;;;9.53;49.37;98672.50;1354408;90;22860;-92
2021/11/26 11:32:43;;;;;;;20.80;10.27;;;;;;;9.51;49.97;98677.65;1360072;89;21473;-92
2021/11/26 11:35:11;;;;;;;15.30;10.60;;;;;;;9.41;49.21;98662.91;1328215;90;21400;-93
2021/11/26 11:37:40;;;;;;;16.40;10.43;;;;;;;9.40;50.20;98664.40;1348729;89;21598;-91
2021/11/26 11:40:09;;;;;;;17.50;9.63;;;;;;;9.35;49.77;98662.33;1352790;90;21555;-91
2021/11/26 11:42:43;;;;;;;15.30;9.47;;;;;;;9.38;50.16;98654.03;1335952;91;21465;-92
2021/11/26 11:45:18;;;;;;;14.40;8.80;;;;;;;9.43;50.22;98642.40;1342587;90;21467;-92
2021/11/26 11:47:55;;;;;;;12.70;8.43;;;;;;;9.45;50.15;98636.44;1339019;90;21517;-91
2021/11/26 11:50:27;;;;;;;13.40;7.80;;;;;;;9.47;50.22;98625.20;1342527;90;21472;-90
2021/11/26 11:52:59;;;;;;;13.93;9.07;;;;;;;9.51;49.37;98619.05;1342434;90;21524;-91
2021/11/26 11:55:31;;;;;;;13.40;8.53;;;;;;;9.53;49.78;98610.95;1372642;88;22418;-91
2021/11/26 11:58:23;;;;;;;15.67;9.77;;;;;;;9.56;49.98;98602.66;1366316;88;21345;-91